sensor_id;sensor_type;location;lat;lon;timestamp;P1;durP1;ratioP1;P2;durP2;ratioP2
5696;SDS011;2873;50.966;7.210;2023-07-20T00:01:35;3.17;;;2.50;;
5696;SDS011;2873;50.966;7.210;2023-07-20T00:04:00;5.03;;;2.90;;
5696;SDS011;2873;50.966;7.210;2023-07-20T00:06:26;7.20;;;2.70;;
5696;SDS011;2873;50.966;7.210;2023-07-20T00:08:53;7.30;;;3.00;;
5696;SDS011;2873;50.966;7.210;2023-07-20T00:11:19;3.72;;;2.60;;
5696;SDS011;2873;50.966;7.210;2023-07-20T00:13:45;5.47;;;2.50;;
5696;SDS011;2873;50.966;7.210;2023-07-20T00:16:10;3.80;;;2.30;;
5696;SDS011;2873;50.966;7.210;2023-07-20T00:18:36;5.28;;;2.70;;
5696;SDS011;2873;50.966;7.210;2023-07-20T00:21:02;4.80;;;3.05;;
5696;SDS011;2873;50.966;7.210;2023-07-20T00:23:27;6.30;;;2.90;;
5696;SDS011;2873;50.966;7.210;2023-07-20T00:25:53;5.43;;;2.80;;
5696;SDS011;2873;50.966;7.210;2023-07-20T00:28:19;8.70;;;3.10;;
5696;SDS011;2873;50.966;7.210;2023-07-20T00:30:44;3.50;;;2.70;;
5696;SDS011;2873;50.966;7.210;2023-07-20T00:33:10;4.50;;;3.10;;
5696;SDS011;2873;50.966;7.210;2023-07-20T00:35:37;2.92;;;2.70;;
5696;SDS011;2873;50.966;7.210;2023-07-20T00:38:03;6.05;;;3.00;;
5696;SDS011;2873;50.966;7.210;2023-07-20T00:40:35;4.18;;;3.03;;
5696;SDS011;2873;50.966;7.210;2023-07-20T00:43:04;4.33;;;2.67;;
5696;SDS011;2873;50.966;7.210;2023-07-20T00:45:30;5.25;;;3.20;;
5696;SDS011;2873;50.966;7.210;2023-07-20T00:47:57;7.70;;;3.10;;
5696;SDS011;2873;50.966;7.210;2023-07-20T00:50:23;5.90;;;3.10;;
5696;SDS011;2873;50.966;7.210;2023-07-20T00:52:50;4.30;;;2.83;;
5696;SDS011;2873;50.966;7.210;2023-07-20T00:55:16;4.87;;;3.13;;
5696;SDS011;2873;50.966;7.210;2023-07-20T00:57:42;5.07;;;2.78;;
5696;SDS011;2873;50.966;7.210;2023-07-20T01:00:08;3.10;;;2.73;;
5696;SDS011;2873;50.966;7.210;2023-07-20T01:02:34;3.90;;;2.90;;
5696;SDS011;2873;50.966;7.210;2023-07-20T01:05:00;5.10;;;3.10;;
5696;SDS011;2873;50.966;7.210;2023-07-20T01:07:31;2.83;;;2.33;;
5696;SDS011;2873;50.966;7.210;2023-07-20T01:10:06;4.40;;;3.20;;
5696;SDS011;2873;50.966;7.210;2023-07-20T01:12:41;5.43;;;3.20;;
5696;SDS011;2873;50.966;7.210;2023-07-20T01:15:08;5.72;;;3.60;;
5696;SDS011;2873;50.966;7.210;2023-07-20T01:17:35;3.40;;;2.60;;
5696;SDS011;2873;50.966;7.210;2023-07-20T01:20:00;3.97;;;2.90;;
5696;SDS011;2873;50.966;7.210;2023-07-20T01:25:19;5.88;;;2.90;;
5696;SDS011;2873;50.966;7.210;2023-07-20T01:30:36;4.28;;;2.80;;
5696;SDS011;2873;50.966;7.210;2023-07-20T01:33:16;9.23;;;2.97;;
5696;SDS011;2873;50.966;7.210;2023-07-20T01:35:44;9.00;;;3.00;;
5696;SDS011;2873;50.966;7.210;2023-07-20T01:38:14;4.15;;;2.50;;
5696;SDS011;2873;50.966;7.210;2023-07-20T01:40:41;2.90;;;2.30;;
5696;SDS011;2873;50.966;7.210;2023-07-20T01:43:07;3.00;;;2.80;;
5696;SDS011;2873;50.966;7.210;2023-07-20T01:45:32;3.10;;;2.80;;
5696;SDS011;2873;50.966;7.210;2023-07-20T01:47:58;3.75;;;2.90;;
5696;SDS011;2873;50.966;7.210;2023-07-20T01:50:23;3.20;;;2.78;;
5696;SDS011;2873;50.966;7.210;2023-07-20T01:52:49;5.20;;;2.90;;
5696;SDS011;2873;50.966;7.210;2023-07-20T01:55:14;8.13;;;3.20;;
5696;SDS011;2873;50.966;7.210;2023-07-20T01:57:40;5.20;;;2.97;;
5696;SDS011;2873;50.966;7.210;2023-07-20T02:00:06;5.00;;;3.05;;
5696;SDS011;2873;50.966;7.210;2023-07-20T02:02:33;8.07;;;3.00;;
5696;SDS011;2873;50.966;7.210;2023-07-20T02:04:59;4.53;;;2.90;;
5696;SDS011;2873;50.966;7.210;2023-07-20T02:07:24;6.10;;;3.00;;
5696;SDS011;2873;50.966;7.210;2023-07-20T02:09:50;6.57;;;2.97;;
5696;SDS011;2873;50.966;7.210;2023-07-20T02:12:16;4.80;;;3.50;;
5696;SDS011;2873;50.966;7.210;2023-07-20T02:14:42;5.37;;;3.20;;
5696;SDS011;2873;50.966;7.210;2023-07-20T02:17:07;6.13;;;3.23;;
5696;SDS011;2873;50.966;7.210;2023-07-20T02:19:35;8.55;;;3.28;;
5696;SDS011;2873;50.966;7.210;2023-07-20T02:22:01;5.15;;;2.90;;
5696;SDS011;2873;50.966;7.210;2023-07-20T02:24:27;5.80;;;3.40;;
5696;SDS011;2873;50.966;7.210;2023-07-20T02:26:52;3.80;;;3.27;;
5696;SDS011;2873;50.966;7.210;2023-07-20T02:29:18;7.13;;;3.43;;
5696;SDS011;2873;50.966;7.210;2023-07-20T02:31:43;5.80;;;3.20;;
5696;SDS011;2873;50.966;7.210;2023-07-20T02:34:09;5.00;;;3.45;;
5696;SDS011;2873;50.966;7.210;2023-07-20T02:36:35;4.67;;;3.47;;
5696;SDS011;2873;50.966;7.210;2023-07-20T02:39:00;4.78;;;2.70;;
5696;SDS011;2873;50.966;7.210;2023-07-20T02:41:28;4.95;;;3.00;;
5696;SDS011;2873;50.966;7.210;2023-07-20T02:43:55;3.63;;;2.60;;
5696;SDS011;2873;50.966;7.210;2023-07-20T02:46:21;5.85;;;3.10;;
5696;SDS011;2873;50.966;7.210;2023-07-20T02:48:47;2.63;;;2.43;;
5696;SDS011;2873;50.966;7.210;2023-07-20T02:51:12;3.50;;;2.80;;
5696;SDS011;2873;50.966;7.210;2023-07-20T02:53:38;3.70;;;2.53;;
5696;SDS011;2873;50.966;7.210;2023-07-20T02:56:03;3.23;;;2.90;;
5696;SDS011;2873;50.966;7.210;2023-07-20T02:58:29;4.82;;;3.20;;
5696;SDS011;2873;50.966;7.210;2023-07-20T03:00:54;3.20;;;2.90;;
5696;SDS011;2873;50.966;7.210;2023-07-20T03:03:20;2.90;;;2.70;;
5696;SDS011;2873;50.966;7.210;2023-07-20T03:05:45;4.53;;;2.80;;
5696;SDS011;2873;50.966;7.210;2023-07-20T03:08:11;5.78;;;3.08;;
5696;SDS011;2873;50.966;7.210;2023-07-20T03:10:40;7.65;;;3.20;;
5696;SDS011;2873;50.966;7.210;2023-07-20T03:13:06;5.53;;;2.90;;
5696;SDS011;2873;50.966;7.210;2023-07-20T03:15:32;4.15;;;2.90;;
5696;SDS011;2873;50.966;7.210;2023-07-20T03:17:57;4.55;;;2.97;;
5696;SDS011;2873;50.966;7.210;2023-07-20T03:20:23;3.93;;;2.70;;
5696;SDS011;2873;50.966;7.210;2023-07-20T03:22:49;4.22;;;3.00;;
5696;SDS011;2873;50.966;7.210;2023-07-20T03:25:15;4.63;;;3.10;;
5696;SDS011;2873;50.966;7.210;2023-07-20T03:27:40;3.50;;;2.80;;
5696;SDS011;2873;50.966;7.210;2023-07-20T03:30:06;6.88;;;3.42;;
5696;SDS011;2873;50.966;7.210;2023-07-20T03:32:32;5.95;;;3.03;;
5696;SDS011;2873;50.966;7.210;2023-07-20T03:34:57;8.00;;;3.30;;
5696;SDS011;2873;50.966;7.210;2023-07-20T03:37:23;6.40;;;3.40;;
5696;SDS011;2873;50.966;7.210;2023-07-20T03:39:49;6.20;;;3.00;;
5696;SDS011;2873;50.966;7.210;2023-07-20T03:42:14;6.72;;;3.60;;
5696;SDS011;2873;50.966;7.210;2023-07-20T03:44:40;6.60;;;3.40;;
5696;SDS011;2873;50.966;7.210;2023-07-20T03:47:05;5.90;;;2.90;;
5696;SDS011;2873;50.966;7.210;2023-07-20T03:49:31;3.83;;;3.40;;
5696;SDS011;2873;50.966;7.210;2023-07-20T03:51:57;6.70;;;3.87;;
5696;SDS011;2873;50.966;7.210;2023-07-20T03:54:22;7.20;;;3.30;;
5696;SDS011;2873;50.966;7.210;2023-07-20T03:56:48;6.60;;;3.60;;
5696;SDS011;2873;50.966;7.210;2023-07-20T03:59:14;6.47;;;3.40;;
5696;SDS011;2873;50.966;7.210;2023-07-20T04:01:39;5.77;;;3.03;;
5696;SDS011;2873;50.966;7.210;2023-07-20T04:04:06;6.85;;;3.20;;
5696;SDS011;2873;50.966;7.210;2023-07-20T04:06:33;5.50;;;3.30;;
5696;SDS011;2873;50.966;7.210;2023-07-20T04:08:58;5.70;;;3.35;;
5696;SDS011;2873;50.966;7.210;2023-07-20T04:11:24;3.20;;;2.80;;
5696;SDS011;2873;50.966;7.210;2023-07-20T04:13:49;5.80;;;3.30;;
5696;SDS011;2873;50.966;7.210;2023-07-20T04:16:15;7.20;;;3.43;;
5696;SDS011;2873;50.966;7.210;2023-07-20T04:18:40;8.32;;;3.58;;
5696;SDS011;2873;50.966;7.210;2023-07-20T04:21:07;8.27;;;3.07;;
5696;SDS011;2873;50.966;7.210;2023-07-20T04:23:33;5.32;;;3.30;;
5696;SDS011;2873;50.966;7.210;2023-07-20T04:26:00;5.43;;;3.10;;
5696;SDS011;2873;50.966;7.210;2023-07-20T04:28:26;6.03;;;3.30;;
5696;SDS011;2873;50.966;7.210;2023-07-20T04:30:51;6.80;;;3.20;;
5696;SDS011;2873;50.966;7.210;2023-07-20T04:33:17;5.25;;;3.30;;
5696;SDS011;2873;50.966;7.210;2023-07-20T04:35:53;7.60;;;4.22;;
5696;SDS011;2873;50.966;7.210;2023-07-20T04:38:20;4.43;;;3.05;;
5696;SDS011;2873;50.966;7.210;2023-07-20T04:40:46;5.88;;;3.33;;
5696;SDS011;2873;50.966;7.210;2023-07-20T04:43:13;6.38;;;3.80;;
5696;SDS011;2873;50.966;7.210;2023-07-20T04:45:39;8.18;;;3.85;;
5696;SDS011;2873;50.966;7.210;2023-07-20T04:48:06;9.10;;;4.50;;
5696;SDS011;2873;50.966;7.210;2023-07-20T04:50:35;10.07;;;4.10;;
5696;SDS011;2873;50.966;7.210;2023-07-20T04:53:01;8.80;;;4.30;;
5696;SDS011;2873;50.966;7.210;2023-07-20T04:55:27;12.65;;;4.43;;
5696;SDS011;2873;50.966;7.210;2023-07-20T04:57:53;9.63;;;4.18;;
5696;SDS011;2873;50.966;7.210;2023-07-20T05:00:18;10.83;;;4.57;;
5696;SDS011;2873;50.966;7.210;2023-07-20T05:02:44;8.93;;;4.05;;
5696;SDS011;2873;50.966;7.210;2023-07-20T05:05:12;6.07;;;4.00;;
5696;SDS011;2873;50.966;7.210;2023-07-20T05:07:38;7.57;;;4.60;;
5696;SDS011;2873;50.966;7.210;2023-07-20T05:10:04;6.10;;;3.90;;
5696;SDS011;2873;50.966;7.210;2023-07-20T05:12:29;7.28;;;4.00;;
5696;SDS011;2873;50.966;7.210;2023-07-20T05:14:55;6.10;;;4.27;;
5696;SDS011;2873;50.966;7.210;2023-07-20T05:17:21;7.72;;;4.40;;
5696;SDS011;2873;50.966;7.210;2023-07-20T05:19:46;10.43;;;4.30;;
5696;SDS011;2873;50.966;7.210;2023-07-20T05:22:13;7.90;;;4.20;;
5696;SDS011;2873;50.966;7.210;2023-07-20T05:24:39;10.13;;;4.70;;
5696;SDS011;2873;50.966;7.210;2023-07-20T05:27:04;7.37;;;4.50;;
5696;SDS011;2873;50.966;7.210;2023-07-20T05:29:30;11.30;;;4.70;;
5696;SDS011;2873;50.966;7.210;2023-07-20T05:31:56;9.40;;;4.90;;
5696;SDS011;2873;50.966;7.210;2023-07-20T05:34:22;7.97;;;4.75;;
5696;SDS011;2873;50.966;7.210;2023-07-20T05:39:33;12.50;;;5.07;;
5696;SDS011;2873;50.966;7.210;2023-07-20T05:41:58;13.50;;;4.80;;
5696;SDS011;2873;50.966;7.210;2023-07-20T05:44:24;13.23;;;5.17;;
5696;SDS011;2873;50.966;7.210;2023-07-20T05:46:49;10.50;;;5.43;;
5696;SDS011;2873;50.966;7.210;2023-07-20T05:49:15;9.57;;;5.00;;
5696;SDS011;2873;50.966;7.210;2023-07-20T05:51:40;8.10;;;5.03;;
5696;SDS011;2873;50.966;7.210;2023-07-20T05:54:06;10.13;;;6.00;;
5696;SDS011;2873;50.966;7.210;2023-07-20T05:56:31;14.27;;;7.77;;
5696;SDS011;2873;50.966;7.210;2023-07-20T05:58:57;11.02;;;7.30;;
5696;SDS011;2873;50.966;7.210;2023-07-20T06:01:22;11.33;;;6.30;;
5696;SDS011;2873;50.966;7.210;2023-07-20T06:03:51;11.50;;;6.70;;
5696;SDS011;2873;50.966;7.210;2023-07-20T06:06:17;11.35;;;6.80;;
5696;SDS011;2873;50.966;7.210;2023-07-20T06:08:42;7.67;;;5.30;;
5696;SDS011;2873;50.966;7.210;2023-07-20T06:11:08;10.50;;;6.53;;
5696;SDS011;2873;50.966;7.210;2023-07-20T06:13:33;13.10;;;7.00;;
5696;SDS011;2873;50.966;7.210;2023-07-20T06:15:59;15.43;;;7.50;;
5696;SDS011;2873;50.966;7.210;2023-07-20T06:18:24;14.68;;;7.20;;
5696;SDS011;2873;50.966;7.210;2023-07-20T06:20:50;11.30;;;6.60;;
5696;SDS011;2873;50.966;7.210;2023-07-20T06:23:19;12.35;;;7.32;;
5696;SDS011;2873;50.966;7.210;2023-07-20T06:25:45;14.80;;;10.13;;
5696;SDS011;2873;50.966;7.210;2023-07-20T06:28:11;12.65;;;7.68;;
5696;SDS011;2873;50.966;7.210;2023-07-20T06:30:37;13.90;;;8.52;;
5696;SDS011;2873;50.966;7.210;2023-07-20T06:33:03;14.60;;;9.30;;
5696;SDS011;2873;50.966;7.210;2023-07-20T06:35:28;14.03;;;8.97;;
5696;SDS011;2873;50.966;7.210;2023-07-20T06:37:54;14.55;;;8.50;;
5696;SDS011;2873;50.966;7.210;2023-07-20T06:40:19;13.43;;;8.23;;
5696;SDS011;2873;50.966;7.210;2023-07-20T06:42:46;14.95;;;8.77;;
5696;SDS011;2873;50.966;7.210;2023-07-20T06:45:11;12.63;;;9.20;;
5696;SDS011;2873;50.966;7.210;2023-07-20T06:47:38;14.85;;;10.15;;
5696;SDS011;2873;50.966;7.210;2023-07-20T06:50:05;15.15;;;10.20;;
5696;SDS011;2873;50.966;7.210;2023-07-20T06:52:31;17.88;;;9.63;;
5696;SDS011;2873;50.966;7.210;2023-07-20T06:54:57;14.75;;;10.20;;
5696;SDS011;2873;50.966;7.210;2023-07-20T06:57:22;15.52;;;9.73;;
5696;SDS011;2873;50.966;7.210;2023-07-20T06:59:48;17.33;;;9.90;;
5696;SDS011;2873;50.966;7.210;2023-07-20T07:02:13;16.30;;;9.93;;
5696;SDS011;2873;50.966;7.210;2023-07-20T07:04:39;16.73;;;9.27;;
5696;SDS011;2873;50.966;7.210;2023-07-20T07:07:05;11.48;;;8.50;;
5696;SDS011;2873;50.966;7.210;2023-07-20T07:09:30;16.03;;;9.53;;
5696;SDS011;2873;50.966;7.210;2023-07-20T07:11:56;13.10;;;8.48;;
5696;SDS011;2873;50.966;7.210;2023-07-20T07:14:22;8.70;;;7.30;;
5696;SDS011;2873;50.966;7.210;2023-07-20T07:16:47;13.80;;;8.80;;
5696;SDS011;2873;50.966;7.210;2023-07-20T07:19:13;15.02;;;8.55;;
5696;SDS011;2873;50.966;7.210;2023-07-20T07:21:39;14.93;;;8.27;;
5696;SDS011;2873;50.966;7.210;2023-07-20T07:24:04;9.53;;;7.60;;
5696;SDS011;2873;50.966;7.210;2023-07-20T07:26:32;14.00;;;9.13;;
5696;SDS011;2873;50.966;7.210;2023-07-20T07:28:58;12.00;;;8.57;;
5696;SDS011;2873;50.966;7.210;2023-07-20T07:31:24;11.90;;;7.90;;
5696;SDS011;2873;50.966;7.210;2023-07-20T07:33:50;12.20;;;8.30;;
5696;SDS011;2873;50.966;7.210;2023-07-20T07:36:16;12.10;;;8.17;;
5696;SDS011;2873;50.966;7.210;2023-07-20T07:38:41;7.90;;;6.80;;
5696;SDS011;2873;50.966;7.210;2023-07-20T07:41:08;10.50;;;7.05;;
5696;SDS011;2873;50.966;7.210;2023-07-20T07:43:33;9.38;;;6.70;;
5696;SDS011;2873;50.966;7.210;2023-07-20T07:46:00;11.52;;;7.60;;
5696;SDS011;2873;50.966;7.210;2023-07-20T07:48:27;13.23;;;6.80;;
5696;SDS011;2873;50.966;7.210;2023-07-20T07:50:53;8.55;;;6.95;;
5696;SDS011;2873;50.966;7.210;2023-07-20T07:53:19;8.63;;;7.00;;
5696;SDS011;2873;50.966;7.210;2023-07-20T07:55:45;9.20;;;8.25;;
5696;SDS011;2873;50.966;7.210;2023-07-20T07:58:12;9.47;;;7.27;;
5696;SDS011;2873;50.966;7.210;2023-07-20T08:00:38;7.95;;;6.95;;
5696;SDS011;2873;50.966;7.210;2023-07-20T08:03:05;12.13;;;8.50;;
5696;SDS011;2873;50.966;7.210;2023-07-20T08:05:31;12.63;;;7.43;;
5696;SDS011;2873;50.966;7.210;2023-07-20T08:07:57;9.70;;;6.55;;
5696;SDS011;2873;50.966;7.210;2023-07-20T08:10:22;9.43;;;5.80;;
5696;SDS011;2873;50.966;7.210;2023-07-20T08:12:48;10.83;;;6.97;;
5696;SDS011;2873;50.966;7.210;2023-07-20T08:15:13;8.70;;;6.73;;
5696;SDS011;2873;50.966;7.210;2023-07-20T08:17:40;6.38;;;5.78;;
5696;SDS011;2873;50.966;7.210;2023-07-20T08:20:07;8.23;;;6.05;;
5696;SDS011;2873;50.966;7.210;2023-07-20T08:22:34;6.00;;;5.40;;
5696;SDS011;2873;50.966;7.210;2023-07-20T08:25:00;6.82;;;5.00;;
5696;SDS011;2873;50.966;7.210;2023-07-20T08:27:25;5.72;;;4.38;;
5696;SDS011;2873;50.966;7.210;2023-07-20T08:29:51;5.20;;;4.50;;
5696;SDS011;2873;50.966;7.210;2023-07-20T08:32:17;6.93;;;4.80;;
5696;SDS011;2873;50.966;7.210;2023-07-20T08:34:42;5.90;;;4.40;;
5696;SDS011;2873;50.966;7.210;2023-07-20T08:37:08;6.43;;;5.80;;
5696;SDS011;2873;50.966;7.210;2023-07-20T08:39:35;9.40;;;5.45;;
5696;SDS011;2873;50.966;7.210;2023-07-20T08:42:01;7.32;;;5.40;;
5696;SDS011;2873;50.966;7.210;2023-07-20T08:44:29;8.43;;;5.30;;
5696;SDS011;2873;50.966;7.210;2023-07-20T08:46:55;10.80;;;4.88;;
5696;SDS011;2873;50.966;7.210;2023-07-20T08:49:22;6.22;;;4.53;;
5696;SDS011;2873;50.966;7.210;2023-07-20T08:51:48;5.28;;;4.43;;
5696;SDS011;2873;50.966;7.210;2023-07-20T08:54:13;5.32;;;4.40;;
5696;SDS011;2873;50.966;7.210;2023-07-20T08:56:41;5.25;;;3.67;;
5696;SDS011;2873;50.966;7.210;2023-07-20T08:59:08;3.65;;;2.70;;
5696;SDS011;2873;50.966;7.210;2023-07-20T09:01:34;3.47;;;2.23;;
5696;SDS011;2873;50.966;7.210;2023-07-20T09:04:02;2.40;;;2.20;;
5696;SDS011;2873;50.966;7.210;2023-07-20T09:06:28;3.40;;;3.05;;
5696;SDS011;2873;50.966;7.210;2023-07-20T09:08:54;2.93;;;2.43;;
5696;SDS011;2873;50.966;7.210;2023-07-20T09:11:20;4.07;;;3.08;;
5696;SDS011;2873;50.966;7.210;2023-07-20T09:13:45;3.00;;;2.70;;
5696;SDS011;2873;50.966;7.210;2023-07-20T09:16:14;2.90;;;2.40;;
5696;SDS011;2873;50.966;7.210;2023-07-20T09:18:41;2.30;;;2.10;;
5696;SDS011;2873;50.966;7.210;2023-07-20T09:21:06;4.18;;;2.30;;
5696;SDS011;2873;50.966;7.210;2023-07-20T09:23:35;2.93;;;2.63;;
5696;SDS011;2873;50.966;7.210;2023-07-20T09:26:13;2.80;;;2.60;;
5696;SDS011;2873;50.966;7.210;2023-07-20T09:28:44;3.85;;;2.17;;
5696;SDS011;2873;50.966;7.210;2023-07-20T09:31:17;3.00;;;2.20;;
5696;SDS011;2873;50.966;7.210;2023-07-20T09:33:44;2.90;;;2.70;;
5696;SDS011;2873;50.966;7.210;2023-07-20T09:36:10;2.60;;;2.40;;
5696;SDS011;2873;50.966;7.210;2023-07-20T09:38:41;2.80;;;2.10;;
5696;SDS011;2873;50.966;7.210;2023-07-20T09:41:14;2.45;;;2.05;;
5696;SDS011;2873;50.966;7.210;2023-07-20T09:43:43;2.00;;;1.90;;
5696;SDS011;2873;50.966;7.210;2023-07-20T09:46:10;1.52;;;1.42;;
5696;SDS011;2873;50.966;7.210;2023-07-20T09:48:36;1.30;;;1.20;;
5696;SDS011;2873;50.966;7.210;2023-07-20T09:51:02;1.85;;;1.60;;
5696;SDS011;2873;50.966;7.210;2023-07-20T09:53:29;3.42;;;1.90;;
5696;SDS011;2873;50.966;7.210;2023-07-20T09:55:57;3.85;;;2.58;;
5696;SDS011;2873;50.966;7.210;2023-07-20T09:58:23;3.08;;;2.28;;
5696;SDS011;2873;50.966;7.210;2023-07-20T10:00:51;2.22;;;2.13;;
5696;SDS011;2873;50.966;7.210;2023-07-20T10:03:18;2.83;;;2.40;;
5696;SDS011;2873;50.966;7.210;2023-07-20T10:06:05;1.92;;;1.83;;
5696;SDS011;2873;50.966;7.210;2023-07-20T10:08:33;6.03;;;2.10;;
5696;SDS011;2873;50.966;7.210;2023-07-20T10:11:04;3.42;;;1.52;;
5696;SDS011;2873;50.966;7.210;2023-07-20T10:13:32;2.83;;;1.67;;
5696;SDS011;2873;50.966;7.210;2023-07-20T10:16:10;2.08;;;1.70;;
5696;SDS011;2873;50.966;7.210;2023-07-20T10:18:41;2.20;;;2.10;;
5696;SDS011;2873;50.966;7.210;2023-07-20T10:21:14;2.45;;;1.80;;
5696;SDS011;2873;50.966;7.210;2023-07-20T10:23:42;1.70;;;1.60;;
5696;SDS011;2873;50.966;7.210;2023-07-20T10:26:08;3.13;;;1.70;;
5696;SDS011;2873;50.966;7.210;2023-07-20T10:28:34;1.70;;;1.60;;
5696;SDS011;2873;50.966;7.210;2023-07-20T10:31:01;4.33;;;1.90;;
5696;SDS011;2873;50.966;7.210;2023-07-20T10:33:27;1.52;;;1.40;;
5696;SDS011;2873;50.966;7.210;2023-07-20T10:35:54;1.98;;;1.25;;
5696;SDS011;2873;50.966;7.210;2023-07-20T10:38:38;1.90;;;1.80;;
5696;SDS011;2873;50.966;7.210;2023-07-20T10:41:15;1.58;;;1.48;;
5696;SDS011;2873;50.966;7.210;2023-07-20T10:43:44;2.20;;;1.60;;
5696;SDS011;2873;50.966;7.210;2023-07-20T10:46:11;3.27;;;1.40;;
5696;SDS011;2873;50.966;7.210;2023-07-20T10:48:58;2.42;;;1.52;;
5696;SDS011;2873;50.966;7.210;2023-07-20T10:51:28;3.17;;;1.60;;
5696;SDS011;2873;50.966;7.210;2023-07-20T10:53:57;1.45;;;1.35;;
5696;SDS011;2873;50.966;7.210;2023-07-20T10:56:26;1.58;;;1.48;;
5696;SDS011;2873;50.966;7.210;2023-07-20T10:58:59;1.80;;;1.70;;
5696;SDS011;2873;50.966;7.210;2023-07-20T11:01:29;1.42;;;1.40;;
5696;SDS011;2873;50.966;7.210;2023-07-20T11:03:57;2.13;;;1.40;;
5696;SDS011;2873;50.966;7.210;2023-07-20T11:09:09;3.37;;;1.40;;
5696;SDS011;2873;50.966;7.210;2023-07-20T11:11:40;6.00;;;1.42;;
5696;SDS011;2873;50.966;7.210;2023-07-20T11:14:10;2.90;;;1.60;;
5696;SDS011;2873;50.966;7.210;2023-07-20T11:16:47;1.30;;;1.30;;
5696;SDS011;2873;50.966;7.210;2023-07-20T11:19:13;1.40;;;1.30;;
5696;SDS011;2873;50.966;7.210;2023-07-20T11:21:42;1.65;;;1.30;;
5696;SDS011;2873;50.966;7.210;2023-07-20T11:24:09;1.50;;;1.40;;
5696;SDS011;2873;50.966;7.210;2023-07-20T11:29:11;1.20;;;1.00;;
5696;SDS011;2873;50.966;7.210;2023-07-20T11:31:38;1.10;;;1.10;;
5696;SDS011;2873;50.966;7.210;2023-07-20T11:34:04;1.40;;;1.30;;
5696;SDS011;2873;50.966;7.210;2023-07-20T11:36:31;1.00;;;1.00;;
5696;SDS011;2873;50.966;7.210;2023-07-20T11:38:56;1.10;;;1.10;;
5696;SDS011;2873;50.966;7.210;2023-07-20T11:41:24;1.67;;;1.50;;
5696;SDS011;2873;50.966;7.210;2023-07-20T11:43:51;1.58;;;1.48;;
5696;SDS011;2873;50.966;7.210;2023-07-20T11:46:16;1.33;;;1.17;;
5696;SDS011;2873;50.966;7.210;2023-07-20T11:48:42;1.50;;;1.40;;
5696;SDS011;2873;50.966;7.210;2023-07-20T11:51:13;1.83;;;1.20;;
5696;SDS011;2873;50.966;7.210;2023-07-20T11:53:42;1.20;;;1.10;;
5696;SDS011;2873;50.966;7.210;2023-07-20T11:56:11;1.10;;;0.98;;
5696;SDS011;2873;50.966;7.210;2023-07-20T11:58:41;0.95;;;0.95;;
5696;SDS011;2873;50.966;7.210;2023-07-20T12:01:09;1.70;;;1.20;;
5696;SDS011;2873;50.966;7.210;2023-07-20T12:03:36;1.50;;;1.20;;
5696;SDS011;2873;50.966;7.210;2023-07-20T12:06:08;2.45;;;1.40;;
5696;SDS011;2873;50.966;7.210;2023-07-20T12:08:34;2.90;;;1.50;;
5696;SDS011;2873;50.966;7.210;2023-07-20T12:11:02;2.40;;;1.20;;
5696;SDS011;2873;50.966;7.210;2023-07-20T12:13:38;2.10;;;1.40;;
5696;SDS011;2873;50.966;7.210;2023-07-20T12:16:12;1.42;;;1.30;;
5696;SDS011;2873;50.966;7.210;2023-07-20T12:18:40;1.30;;;1.10;;
5696;SDS011;2873;50.966;7.210;2023-07-20T12:21:09;1.50;;;1.40;;
5696;SDS011;2873;50.966;7.210;2023-07-20T12:23:38;0.88;;;0.88;;
5696;SDS011;2873;50.966;7.210;2023-07-20T12:26:09;2.03;;;1.02;;
5696;SDS011;2873;50.966;7.210;2023-07-20T12:28:41;1.10;;;1.10;;
5696;SDS011;2873;50.966;7.210;2023-07-20T12:31:08;3.70;;;1.25;;
5696;SDS011;2873;50.966;7.210;2023-07-20T12:33:35;0.90;;;0.90;;
5696;SDS011;2873;50.966;7.210;2023-07-20T12:36:02;1.27;;;1.15;;
5696;SDS011;2873;50.966;7.210;2023-07-20T12:38:27;1.15;;;1.15;;
5696;SDS011;2873;50.966;7.210;2023-07-20T12:40:53;2.20;;;1.20;;
5696;SDS011;2873;50.966;7.210;2023-07-20T12:43:22;1.13;;;1.00;;
5696;SDS011;2873;50.966;7.210;2023-07-20T12:45:48;1.37;;;1.00;;
5696;SDS011;2873;50.966;7.210;2023-07-20T12:48:13;1.30;;;1.00;;
5696;SDS011;2873;50.966;7.210;2023-07-20T12:50:39;1.20;;;1.10;;
5696;SDS011;2873;50.966;7.210;2023-07-20T12:53:04;1.30;;;1.10;;
5696;SDS011;2873;50.966;7.210;2023-07-20T12:55:30;2.80;;;1.00;;
5696;SDS011;2873;50.966;7.210;2023-07-20T12:57:56;1.00;;;1.00;;
5696;SDS011;2873;50.966;7.210;2023-07-20T13:00:22;1.15;;;1.02;;
5696;SDS011;2873;50.966;7.210;2023-07-20T13:02:48;2.87;;;1.20;;
5696;SDS011;2873;50.966;7.210;2023-07-20T13:05:14;3.00;;;0.80;;
5696;SDS011;2873;50.966;7.210;2023-07-20T13:07:41;1.17;;;1.10;;
5696;SDS011;2873;50.966;7.210;2023-07-20T13:10:07;2.60;;;1.10;;
5696;SDS011;2873;50.966;7.210;2023-07-20T13:12:33;1.00;;;0.70;;
5696;SDS011;2873;50.966;7.210;2023-07-20T13:15:01;4.33;;;1.03;;
5696;SDS011;2873;50.966;7.210;2023-07-20T13:17:30;1.80;;;1.20;;
5696;SDS011;2873;50.966;7.210;2023-07-20T13:19:56;2.70;;;1.00;;
5696;SDS011;2873;50.966;7.210;2023-07-20T13:22:22;1.30;;;1.20;;
5696;SDS011;2873;50.966;7.210;2023-07-20T13:24:48;1.10;;;1.00;;
5696;SDS011;2873;50.966;7.210;2023-07-20T13:27:15;1.15;;;1.15;;
5696;SDS011;2873;50.966;7.210;2023-07-20T13:29:41;1.15;;;1.15;;
5696;SDS011;2873;50.966;7.210;2023-07-20T13:32:07;1.20;;;1.20;;
5696;SDS011;2873;50.966;7.210;2023-07-20T13:34:33;2.30;;;1.20;;
5696;SDS011;2873;50.966;7.210;2023-07-20T13:37:02;1.30;;;1.20;;
5696;SDS011;2873;50.966;7.210;2023-07-20T13:39:27;2.10;;;1.10;;
5696;SDS011;2873;50.966;7.210;2023-07-20T13:41:53;2.00;;;1.20;;
5696;SDS011;2873;50.966;7.210;2023-07-20T13:44:22;2.55;;;1.05;;
5696;SDS011;2873;50.966;7.210;2023-07-20T13:46:48;1.00;;;0.83;;
5696;SDS011;2873;50.966;7.210;2023-07-20T13:49:14;1.07;;;0.97;;
5696;SDS011;2873;50.966;7.210;2023-07-20T13:54:06;1.10;;;1.10;;
5696;SDS011;2873;50.966;7.210;2023-07-20T13:56:32;2.50;;;1.20;;
5696;SDS011;2873;50.966;7.210;2023-07-20T13:58:57;0.90;;;0.90;;
5696;SDS011;2873;50.966;7.210;2023-07-20T14:01:23;0.90;;;0.90;;
5696;SDS011;2873;50.966;7.210;2023-07-20T14:03:50;1.40;;;1.00;;
5696;SDS011;2873;50.966;7.210;2023-07-20T14:06:16;1.40;;;1.30;;
5696;SDS011;2873;50.966;7.210;2023-07-20T14:08:42;3.20;;;1.30;;
5696;SDS011;2873;50.966;7.210;2023-07-20T14:11:11;1.92;;;1.13;;
5696;SDS011;2873;50.966;7.210;2023-07-20T14:13:40;1.27;;;1.20;;
5696;SDS011;2873;50.966;7.210;2023-07-20T14:16:06;1.20;;;1.10;;
5696;SDS011;2873;50.966;7.210;2023-07-20T14:18:32;1.10;;;1.10;;
5696;SDS011;2873;50.966;7.210;2023-07-20T14:20:58;1.50;;;1.20;;
5696;SDS011;2873;50.966;7.210;2023-07-20T14:23:24;1.30;;;1.30;;
5696;SDS011;2873;50.966;7.210;2023-07-20T14:25:49;1.10;;;1.10;;
5696;SDS011;2873;50.966;7.210;2023-07-20T14:28:15;1.50;;;1.30;;
5696;SDS011;2873;50.966;7.210;2023-07-20T14:30:41;1.00;;;1.00;;
5696;SDS011;2873;50.966;7.210;2023-07-20T14:33:07;1.40;;;1.30;;
5696;SDS011;2873;50.966;7.210;2023-07-20T14:35:33;3.30;;;1.07;;
5696;SDS011;2873;50.966;7.210;2023-07-20T14:37:59;1.70;;;1.13;;
5696;SDS011;2873;50.966;7.210;2023-07-20T14:40:24;2.30;;;1.00;;
5696;SDS011;2873;50.966;7.210;2023-07-20T14:42:50;1.60;;;1.10;;
5696;SDS011;2873;50.966;7.210;2023-07-20T14:45:17;2.38;;;1.30;;
5696;SDS011;2873;50.966;7.210;2023-07-20T14:47:43;2.55;;;1.00;;
5696;SDS011;2873;50.966;7.210;2023-07-20T14:50:08;0.90;;;0.90;;
5696;SDS011;2873;50.966;7.210;2023-07-20T14:52:34;2.88;;;1.20;;
5696;SDS011;2873;50.966;7.210;2023-07-20T14:55:00;1.87;;;1.17;;
5696;SDS011;2873;50.966;7.210;2023-07-20T14:57:26;1.20;;;1.10;;
5696;SDS011;2873;50.966;7.210;2023-07-20T14:59:52;6.80;;;1.30;;
5696;SDS011;2873;50.966;7.210;2023-07-20T15:02:18;0.90;;;0.90;;
5696;SDS011;2873;50.966;7.210;2023-07-20T15:04:47;1.80;;;1.20;;
5696;SDS011;2873;50.966;7.210;2023-07-20T15:07:14;1.25;;;1.25;;
5696;SDS011;2873;50.966;7.210;2023-07-20T15:09:43;1.20;;;1.00;;
5696;SDS011;2873;50.966;7.210;2023-07-20T15:12:09;1.60;;;1.10;;
5696;SDS011;2873;50.966;7.210;2023-07-20T15:14:35;1.00;;;1.00;;
5696;SDS011;2873;50.966;7.210;2023-07-20T15:17:06;1.20;;;1.20;;
5696;SDS011;2873;50.966;7.210;2023-07-20T15:19:32;1.50;;;1.00;;
5696;SDS011;2873;50.966;7.210;2023-07-20T15:21:59;1.80;;;1.00;;
5696;SDS011;2873;50.966;7.210;2023-07-20T15:24:25;2.90;;;1.10;;
5696;SDS011;2873;50.966;7.210;2023-07-20T15:26:50;0.95;;;0.95;;